Terminal Aerodrome Forecast
Issued by NWS

Home | Current Version | Previous Version | Text Only | Print | Product List | Glossary On
Versions: 1 2 3 4 5 6 7 8 9 10 11 12 13
000
FTUS44 KEPZ 200500
TAFDMN
TAF
KDMN 200525Z 2006/2106 33004KT P6SM FEW250
     FM202100 24006KT P6SM SCT250
     FM210200 28008KT P6SM SCT250=

USA.gov is the U.S. government's official web portal to all federal, state and local government web resources and services.